Terminal Aerodrome Forecast
Issued by NWS

Home | Current Version | Previous Version | Text Only | Print | Product List | Glossary On
Versions: 1 2 3 4 5 6 7 8 9 10 11 12 13 14 15 16 17 18 19 20 21 22 23 24
199
FTUS44 KBMX 021211 AAA
TAFTOI
TAF AMD
KTOI 021211Z 0212/0312 VRB02KT 3SM BR OVC012
     FM021500 18006KT P6SM VCTS BKN060CB BKN090
     FM022100 21010KT P6SM SHRA VCTS BKN040CB OVC090
     FM030100 20004KT P6SM SHRA VCTS OVC040CB
     FM030700 VRB03KT 5SM SHRA VCTS SCT035CB OVC070=

USA.gov is the U.S. government's official web portal to all federal, state and local government web resources and services.